Flight Track Log - Related Links

Times and Time Zones

All times are in EDT time to prevent confusion due to time zone crossing. See the CSJ406 flight status page for this flight to view local times or setup timezone preferences in your user account.

Time Position Orientation Groundspeed Altitude Reporting Facility
EDT Latitude Longitude Course Direction KTS MPH feet Rate Location/Type
Thu 07:41:46 42.9333 -78.7333 216° Southwest 71 82 1,600  Level Buffalo TRACON
Thu 07:42:40 42.9167 -78.7500 216° Southwest 76 87 2,600 1,050 Climbing Buffalo TRACON
Thu 07:43:46 42.9000 -78.7833 236° Southwest 84 97 3,700 1,143 Climbing Buffalo TRACON
Thu 07:44:46 42.8833 -78.8000 216° Southwest 77 89 5,000 905 Climbing Buffalo TRACON
Thu 07:45:52 42.8667 -78.8333 236° Southwest 103 119 5,600 571 Climbing Buffalo TRACON
Thu 07:46:52 42.8500 -78.8667 236° Southwest 121 139 6,200 550 Climbing Buffalo TRACON
Thu 07:47:52 42.8167 -78.9000 216° Southwest 120 138 6,700 600 Climbing Buffalo TRACON
Thu 07:48:52 42.8000 -78.9333 236° Southwest 116 133 7,400 650 Climbing Buffalo TRACON
Thu 07:49:52 42.7833 -78.9500 216° Southwest 114 131 8,000 286 Climbing Buffalo TRACON
Thu 07:50:58 42.7500 -79.0000 228° Southwest 128 147 8,000  Level Buffalo TRACON
Thu 07:51:58 42.7167 -79.0333 216° Southwest 141 162 8,000  Level Buffalo TRACON
Thu 07:52:58 42.7000 -79.0667 236° Southwest 138 159 8,000  Level Buffalo TRACON
Thu 07:54:04 42.6667 -79.1167 228° Southwest 137 158 8,000  Level Buffalo TRACON
Thu 07:55:17 42.6333 -79.1500 216° Southwest 138 159 8,000  Level Buffalo TRACON
Thu 07:56:23 42.6000 -79.2000 228° Southwest 136 157 8,000  Level Buffalo TRACON
Thu 07:58:00 42.5596 -79.2527 224° Southwest  Level FlightAware Approximate
Thu 08:05:00 42.3856 -79.4821 225° Southwest  Level FlightAware Approximate
Thu 08:06:00 42.3612 -79.5155 225° Southwest  Level FlightAware Approximate
Thu 08:07:00 42.3368 -79.5488 225° Southwest  Level FlightAware Approximate
Thu 08:08:00 42.3125 -79.5821 225° Southwest  Level FlightAware Approximate
Thu 08:09:00 42.2881 -79.6154 225° Southwest  Level FlightAware Approximate
Thu 08:10:00 42.2636 -79.6487 225° Southwest  Level FlightAware Approximate
Thu 08:11:00 42.2392 -79.6819 225° Southwest  Level FlightAware Approximate
Thu 08:12:00 42.2148 -79.7151 225° Southwest  Level FlightAware Approximate
Thu 08:13:00 42.1903 -79.7483 225° Southwest  Level FlightAware Approximate
Thu 08:14:00 42.1659 -79.7814 225° Southwest  Level FlightAware Approximate
Thu 08:15:00 42.1414 -79.8146 225° Southwest  Level FlightAware Approximate
Thu 08:16:00 42.1170 -79.8476 225° Southwest  Level FlightAware Approximate
Thu 08:17:00 42.0925 -79.8807 225° Southwest  Level FlightAware Approximate
Thu 08:18:00 42.0680 -79.9138 225° Southwest  Level FlightAware Approximate
Thu 08:19:00 42.0435 -79.9468 225° Southwest  Level FlightAware Approximate
Thu 08:20:00 42.0190 -79.9798 225° Southwest  Level FlightAware Approximate
Thu 08:21:00 41.9945 -80.0128 225° Southwest  Level FlightAware Approximate
Thu 08:22:00 41.9699 -80.0457 225° Southwest  Level FlightAware Approximate
Thu 08:23:00 41.9454 -80.0787 225° Southwest  Level FlightAware Approximate
Thu 08:24:00 41.9208 -80.1115 225° Southwest  Level FlightAware Approximate
Thu 08:25:00 41.8963 -80.1444 225° Southwest  Level FlightAware Approximate
Thu 08:26:00 41.8717 -80.1773 225° Southwest  Level FlightAware Approximate
Thu 08:27:00 41.8471 -80.2101 225° Southwest  Level FlightAware Approximate
Thu 08:28:00 41.8226 -80.2429 225° Southwest  Level FlightAware Approximate
Thu 08:29:00 41.7980 -80.2757 225° Southwest  Level FlightAware Approximate
Thu 08:30:00 41.7734 -80.3084 225° Southwest  Level FlightAware Approximate
Thu 08:31:00 41.7488 -80.3411 225° Southwest  Level FlightAware Approximate
Thu 08:32:00 41.7241 -80.3738 225° Southwest  Level FlightAware Approximate
Thu 08:33:00 41.6995 -80.4065 225° Southwest  Level FlightAware Approximate
Thu 08:34:00 41.6749 -80.4391 225° Southwest  Level FlightAware Approximate
Thu 08:35:00 41.6503 -80.4719 225° Southwest  Level FlightAware Approximate
Thu 08:36:00 41.6257 -80.5047 225° Southwest  Level FlightAware Approximate
Thu 08:37:00 41.6012 -80.5374 225° Southwest  Level FlightAware Approximate
Thu 08:38:00 41.5766 -80.5701 225° Southwest  Level FlightAware Approximate
Thu 08:39:00 41.5518 -80.6024 224° Southwest  Level FlightAware Approximate
Thu 08:40:00 41.5268 -80.6345 224° Southwest  Level FlightAware Approximate
Thu 08:41:00 41.5018 -80.6666 224° Southwest  Level FlightAware Approximate
Thu 08:42:00 41.4768 -80.6987 224° Southwest  Level FlightAware Approximate
Thu 08:43:00 41.4518 -80.7307 224° Southwest  Level FlightAware Approximate
Thu 08:44:00 41.4268 -80.7627 224° Southwest  Level FlightAware Approximate
Thu 08:45:00 41.4018 -80.7947 224° Southwest  Level FlightAware Approximate
Thu 08:46:00 41.3767 -80.8266 224° Southwest  Level FlightAware Approximate
Thu 08:47:00 41.3517 -80.8586 224° Southwest  Level FlightAware Approximate
Thu 08:48:00 41.3266 -80.8905 224° Southwest  Level FlightAware Approximate
Thu 08:49:00 41.3016 -80.9223 224° Southwest  Level FlightAware Approximate
Thu 08:50:00 41.2765 -80.9542 224° Southwest  Level FlightAware Approximate
Thu 08:51:00 41.2518 -80.9865 225° Southwest  Level FlightAware Approximate
Thu 08:52:00 41.2273 -81.0192 225° Southwest  Level FlightAware Approximate
Thu 08:53:00 41.2010 -81.0490 217° Southwest  Level FlightAware Approximate
Thu 08:54:00 41.1792 -81.0847 231° Southwest  Level FlightAware Approximate
Thu 08:55:00 41.1576 -81.1207 231° Southwest  Level FlightAware Approximate
Thu 08:56:00 41.1292 -81.1388 225° Southwest  Level FlightAware Approximate
Thu 08:57:00 41.1048 -81.1715 225° Southwest  Level FlightAware Approximate
Thu 08:58:00 41.0807 -81.2045 232° Southwest  Level FlightAware Approximate
Thu 08:59:00 41.0591 -81.2405 232° Southwest  Level FlightAware Approximate
Thu 09:00:00 41.0375 -81.2764 231° Southwest  Level FlightAware Approximate
Thu 09:01:00 41.0110 -81.3057 217° Southwest  Level FlightAware Approximate
Thu 09:02:00 40.9833 -81.3334 217° Southwest  Level FlightAware Approximate
Thu 09:03:00 40.9566 -81.3626 223° Southwest  Level FlightAware Approximate
Thu 09:04:00 40.9314 -81.3941 223° Southwest  Level FlightAware Approximate
Thu 09:05:00 40.9062 -81.4256 223° Southwest  Level FlightAware Approximate
Thu 09:06:00 40.9000 -81.4333 North  Level FlightAware Approximate
Thu 09:07:00 40.9151 -81.4436 North  Level Estimated

Login

Don't have an account? Register now (free) for customized features, flight alerts, and more!